createdAt,value
2019-05-19T00:00:32.155Z,58.20
2019-05-19T00:02:35.074Z,58.20
2019-05-19T00:04:38.882Z,58.30
2019-05-19T00:06:42.564Z,58.30
2019-05-19T00:08:47.015Z,58.30
2019-05-19T00:10:49.981Z,58.30
2019-05-19T00:12:53.663Z,58.40
2019-05-19T00:14:57.495Z,58.70
2019-05-19T00:17:00.418Z,58.40
2019-05-19T00:19:03.453Z,58.40
2019-05-19T00:21:07.162Z,58.50
2019-05-19T00:23:10.132Z,58.40
2019-05-19T00:25:13.806Z,58.50
2019-05-19T00:27:18.534Z,58.50
2019-05-19T00:29:21.538Z,58.50
2019-05-19T00:31:25.217Z,58.60
2019-05-19T00:33:28.937Z,58.50
2019-05-19T00:35:32.659Z,58.60
2019-05-19T00:37:35.582Z,58.60
2019-05-19T00:39:38.543Z,58.70
2019-05-19T00:41:41.456Z,58.60
2019-05-19T00:43:44.512Z,58.60
2019-05-19T00:45:47.464Z,58.70
2019-05-19T00:47:50.388Z,58.70
2019-05-19T00:49:53.415Z,58.80
2019-05-19T00:51:57.220Z,58.80
2019-05-19T00:54:00.918Z,58.80
2019-05-19T00:56:04.618Z,58.80
2019-05-19T00:58:08.338Z,58.80
2019-05-19T01:00:11.263Z,58.80
2019-05-19T01:02:14.283Z,58.70
2019-05-19T01:04:17.454Z,58.70
2019-05-19T01:06:20.324Z,58.70
2019-05-19T01:08:23.296Z,58.80
2019-05-19T01:10:26.179Z,58.80
2019-05-19T01:12:29.058Z,58.80
2019-05-19T01:14:32.072Z,58.70
2019-05-19T01:16:36.966Z,58.80
2019-05-19T01:18:41.894Z,58.80
2019-05-19T01:20:44.890Z,58.70
2019-05-19T01:22:47.772Z,58.70
2019-05-19T01:24:50.900Z,58.70
2019-05-19T01:26:53.812Z,58.70
2019-05-19T01:28:56.678Z,58.40
2019-05-19T01:30:59.579Z,58.50
2019-05-19T01:33:03.066Z,58.70
2019-05-19T01:35:05.986Z,58.70
2019-05-19T01:37:09.788Z,58.80
2019-05-19T01:39:13.435Z,58.70
2019-05-19T01:41:16.361Z,58.70
2019-05-19T01:43:19.337Z,58.70
2019-05-19T01:45:22.317Z,58.70
2019-05-19T01:47:25.295Z,58.60
2019-05-19T01:49:29.715Z,58.70
2019-05-19T01:51:32.701Z,58.70
2019-05-19T01:53:35.790Z,58.60
2019-05-19T01:55:38.762Z,58.70
2019-05-19T01:57:41.646Z,58.70
2019-05-19T01:59:46.168Z,58.70
2019-05-19T02:01:49.059Z,59.30
2019-05-19T02:03:51.931Z,58.60
2019-05-19T02:05:54.934Z,58.60
2019-05-19T02:07:57.908Z,58.60
2019-05-19T02:10:02.032Z,58.60
2019-05-19T02:12:04.615Z,58.60
2019-05-19T02:14:08.555Z,58.10
2019-05-19T02:16:12.149Z,58.60
2019-05-19T02:18:15.051Z,58.60
2019-05-19T02:20:32.184Z,58.60
2019-05-19T02:22:20.922Z,58.60
2019-05-19T02:24:23.846Z,58.60
2019-05-19T02:26:28.215Z,58.80
2019-05-19T02:28:31.165Z,58.70
2019-05-19T02:30:34.041Z,58.70
2019-05-19T02:32:37.073Z,58.70
2019-05-19T02:34:39.989Z,58.60
2019-05-19T02:36:43.619Z,58.60
2019-05-19T02:38:46.656Z,58.60
2019-05-19T02:40:50.339Z,58.50
2019-05-19T02:42:53.335Z,58.50
2019-05-19T02:44:56.210Z,58.40
2019-05-19T02:46:59.909Z,58.50
2019-05-19T02:49:04.292Z,58.50
2019-05-19T02:51:07.194Z,58.40
2019-05-19T02:53:10.064Z,58.40
2019-05-19T02:55:13.069Z,58.50
2019-05-19T02:57:15.932Z,58.50
2019-05-19T02:59:19.644Z,59.20
2019-05-19T03:01:23.136Z,58.60
2019-05-19T03:03:26.094Z,58.50
2019-05-19T03:05:28.875Z,58.50
2019-05-19T03:07:31.948Z,58.60
2019-05-19T03:09:35.268Z,58.60
2019-05-19T03:11:38.147Z,58.70
2019-05-19T03:13:41.036Z,58.70
2019-05-19T03:15:44.015Z,58.80
2019-05-19T03:17:46.909Z,58.80
2019-05-19T03:19:52.135Z,58.80
2019-05-19T03:21:55.190Z,58.80
2019-05-19T03:23:58.137Z,58.80
2019-05-19T03:26:01.810Z,59.40
2019-05-19T03:28:04.689Z,59.00
2019-05-19T03:30:13.207Z,59.00
2019-05-19T03:32:21.775Z,59.10
2019-05-19T03:34:25.080Z,59.00
2019-05-19T03:36:28.387Z,59.00
2019-05-19T03:38:31.306Z,59.00
2019-05-19T03:40:35.800Z,59.10
2019-05-19T03:42:38.680Z,59.10
2019-05-19T03:44:41.589Z,59.10
2019-05-19T03:46:45.539Z,59.30
2019-05-19T03:48:49.451Z,59.20
2019-05-19T03:50:53.183Z,59.40
2019-05-19T03:52:56.866Z,59.40
2019-05-19T03:54:59.744Z,59.30
2019-05-19T03:57:02.728Z,59.40
2019-05-19T03:59:05.636Z,59.50
2019-05-19T04:01:09.511Z,59.60
2019-05-19T04:03:12.396Z,59.50
2019-05-19T04:05:15.298Z,59.50
2019-05-19T04:07:18.928Z,59.60
2019-05-19T04:09:22.513Z,59.60
2019-05-19T04:11:26.296Z,59.60
2019-05-19T04:13:29.931Z,59.60
2019-05-19T04:15:33.067Z,59.60
2019-05-19T04:17:36.732Z,60.10
2019-05-19T04:19:39.606Z,59.70
2019-05-19T04:21:48.822Z,59.70
2019-05-19T04:23:45.704Z,59.70
2019-05-19T04:25:48.699Z,59.70
2019-05-19T04:27:51.571Z,59.70
2019-05-19T04:29:54.552Z,59.70
2019-05-19T04:31:57.535Z,59.90
2019-05-19T04:34:00.416Z,59.90
2019-05-19T04:36:03.495Z,59.90
2019-05-19T04:38:06.383Z,59.90
2019-05-19T04:40:10.810Z,59.90
2019-05-19T04:42:14.499Z,59.80
2019-05-19T04:44:19.010Z,60.00
2019-05-19T04:46:21.888Z,60.00
2019-05-19T04:48:24.895Z,60.00
2019-05-19T04:50:28.596Z,60.00
2019-05-19T04:52:32.665Z,60.00
2019-05-19T04:54:35.570Z,60.10
2019-05-19T04:56:39.234Z,60.20
2019-05-19T04:58:42.152Z,60.20
2019-05-19T05:00:45.329Z,60.30
2019-05-19T05:02:48.224Z,60.40
2019-05-19T05:04:51.116Z,60.40
2019-05-19T05:06:54.802Z,60.50
2019-05-19T05:08:58.193Z,60.50
2019-05-19T05:11:02.207Z,60.80
2019-05-19T05:13:05.202Z,60.70
2019-05-19T05:15:09.595Z,60.90
2019-05-19T05:17:12.764Z,60.80
2019-05-19T05:19:16.291Z,60.80
2019-05-19T05:21:20.018Z,61.00
2019-05-19T05:23:23.454Z,60.90
2019-05-19T05:25:27.109Z,61.00
2019-05-19T05:27:29.962Z,61.00
2019-05-19T05:29:33.610Z,61.00
2019-05-19T05:31:36.534Z,61.00
2019-05-19T05:33:39.523Z,61.00
2019-05-19T05:35:43.027Z,61.10
2019-05-19T05:37:46.786Z,61.10
2019-05-19T05:39:49.698Z,61.10
2019-05-19T05:41:52.723Z,61.10
2019-05-19T05:43:56.278Z,61.20
2019-05-19T05:46:00.713Z,61.20
2019-05-19T05:48:04.400Z,61.10
2019-05-19T05:50:08.101Z,61.20
2019-05-19T05:52:11.079Z,61.20
2019-05-19T05:54:13.994Z,61.30
2019-05-19T05:56:17.659Z,61.20
2019-05-19T05:58:20.558Z,61.10
2019-05-19T06:00:24.958Z,61.10
2019-05-19T06:02:29.786Z,61.20
2019-05-19T06:04:32.728Z,61.10
2019-05-19T06:06:35.647Z,61.20
2019-05-19T06:08:40.135Z,61.30
2019-05-19T06:10:44.206Z,61.20
2019-05-19T06:12:47.028Z,61.20
2019-05-19T06:14:49.930Z,61.20
2019-05-19T06:16:52.914Z,61.10
2019-05-19T06:18:56.852Z,61.10
2019-05-19T06:20:59.598Z,61.90
2019-05-19T06:23:04.194Z,61.00
2019-05-19T06:25:07.794Z,61.00
2019-05-19T06:27:12.000Z,61.10
2019-05-19T06:29:14.920Z,60.90
2019-05-19T06:31:18.620Z,60.90
2019-05-19T06:33:21.525Z,60.80
2019-05-19T06:35:24.451Z,60.00
2019-05-19T06:37:27.398Z,60.80
2019-05-19T06:39:30.320Z,60.70
2019-05-19T06:41:33.226Z,60.60
2019-05-19T06:43:36.906Z,60.10
2019-05-19T06:45:39.905Z,60.50
2019-05-19T06:47:42.828Z,60.40
2019-05-19T06:49:47.298Z,60.40
2019-05-19T06:51:50.299Z,60.20
2019-05-19T06:53:53.998Z,59.80
2019-05-19T06:55:57.679Z,60.10
2019-05-19T06:58:00.565Z,60.00
2019-05-19T07:00:04.236Z,60.00
2019-05-19T07:02:07.219Z,59.90
2019-05-19T07:04:10.135Z,59.80
2019-05-19T07:06:13.110Z,59.80
2019-05-19T07:08:16.107Z,59.60
2019-05-19T07:10:19.977Z,60.00
2019-05-19T07:12:22.867Z,59.30
2019-05-19T07:14:25.758Z,59.20
2019-05-19T07:16:30.167Z,59.40
2019-05-19T07:18:33.062Z,59.30
2019-05-19T07:20:36.043Z,59.30
2019-05-19T07:22:38.914Z,59.20
2019-05-19T07:24:41.915Z,59.20
2019-05-19T07:26:45.613Z,59.10
2019-05-19T07:28:48.711Z,59.00
2019-05-19T07:30:52.231Z,59.00
2019-05-19T07:32:55.909Z,58.40
2019-05-19T07:34:59.565Z,58.90
2019-05-19T07:37:02.485Z,58.90
2019-05-19T07:39:05.371Z,58.90
2019-05-19T07:41:09.049Z,58.90
2019-05-19T07:43:13.876Z,58.70
2019-05-19T07:45:16.798Z,58.70
2019-05-19T07:47:20.207Z,58.70
2019-05-19T07:49:23.082Z,58.70
2019-05-19T07:51:26.006Z,58.80
2019-05-19T07:53:42.192Z,59.00
2019-05-19T07:55:31.862Z,59.00
2019-05-19T07:57:34.858Z,58.90
2019-05-19T07:59:39.282Z,59.00
2019-05-19T08:01:42.350Z,58.90
2019-05-19T08:03:45.271Z,58.80
2019-05-19T08:05:48.700Z,58.80
2019-05-19T08:07:51.603Z,58.60
2019-05-19T08:09:54.529Z,58.40
2019-05-19T08:11:58.194Z,58.30
2019-05-19T08:14:01.082Z,58.10
2019-05-19T08:16:04.507Z,58.10
2019-05-19T08:18:08.180Z,58.10
2019-05-19T08:20:11.044Z,58.00
2019-05-19T08:22:13.926Z,57.90
2019-05-19T08:24:17.426Z,57.90
2019-05-19T08:26:20.306Z,57.80
2019-05-19T08:28:23.183Z,58.30
2019-05-19T08:30:26.162Z,57.70
2019-05-19T08:32:29.035Z,57.50
2019-05-19T08:34:32.139Z,57.30
2019-05-19T08:36:35.155Z,57.30
2019-05-19T08:38:38.814Z,57.80
2019-05-19T08:40:41.862Z,57.20
2019-05-19T08:42:44.976Z,57.30
2019-05-19T08:44:47.890Z,57.20
2019-05-19T08:46:51.175Z,57.10
2019-05-19T08:48:54.142Z,57.00
2019-05-19T08:50:57.326Z,56.90
2019-05-19T08:53:00.328Z,56.80
2019-05-19T08:55:03.242Z,56.80
2019-05-19T08:57:06.177Z,56.60
2019-05-19T08:59:09.059Z,56.40
2019-05-19T09:01:13.478Z,56.20
2019-05-19T09:03:16.370Z,56.20
2019-05-19T09:05:20.311Z,56.00
2019-05-19T09:07:23.690Z,56.00
2019-05-19T09:09:26.642Z,55.80
2019-05-19T09:11:29.639Z,55.70
2019-05-19T09:13:32.723Z,55.60
2019-05-19T09:15:36.441Z,55.40
2019-05-19T09:17:40.110Z,55.40
2019-05-19T09:19:42.994Z,55.30
2019-05-19T09:21:46.006Z,55.30
2019-05-19T09:23:49.808Z,55.30
2019-05-19T09:25:53.479Z,55.10
2019-05-19T09:27:57.674Z,55.00
2019-05-19T09:30:00.992Z,55.00
2019-05-19T09:32:03.954Z,54.90
2019-05-19T09:34:06.835Z,54.70
2019-05-19T09:36:09.736Z,54.80
2019-05-19T09:38:13.887Z,54.40
2019-05-19T09:40:16.759Z,54.40
2019-05-19T09:42:20.105Z,54.40
2019-05-19T09:44:25.406Z,54.30
2019-05-19T09:46:28.270Z,54.30
2019-05-19T09:48:31.203Z,54.20
2019-05-19T09:50:36.421Z,54.10
2019-05-19T09:52:39.679Z,54.00
2019-05-19T09:54:45.598Z,54.00
2019-05-19T09:56:45.495Z,53.80
2019-05-19T09:58:49.888Z,53.80
2019-05-19T10:00:52.802Z,53.70
2019-05-19T10:02:55.659Z,53.70
2019-05-19T10:04:59.403Z,53.70
2019-05-19T10:07:05.038Z,53.60
2019-05-19T10:09:12.939Z,53.60
2019-05-19T10:11:26.383Z,53.50
2019-05-19T10:13:29.318Z,53.40
2019-05-19T10:15:32.311Z,53.20
2019-05-19T10:17:35.178Z,53.20
2019-05-19T10:19:38.182Z,53.20
2019-05-19T10:21:42.065Z,53.20
2019-05-19T10:23:45.697Z,53.20
2019-05-19T10:25:49.891Z,53.00
2019-05-19T10:27:52.788Z,52.90
2019-05-19T10:29:56.427Z,52.90
2019-05-19T10:31:59.343Z,52.80
2019-05-19T10:34:03.755Z,52.90
2019-05-19T10:36:06.749Z,52.90
2019-05-19T10:38:09.622Z,52.80
2019-05-19T10:40:13.327Z,52.60
2019-05-19T10:42:16.308Z,52.50
2019-05-19T10:44:19.207Z,52.40
2019-05-19T10:46:22.850Z,52.40
2019-05-19T10:48:25.773Z,52.30
2019-05-19T10:50:28.651Z,52.30
2019-05-19T10:52:31.547Z,52.10
2019-05-19T10:54:35.232Z,51.70
2019-05-19T10:56:38.094Z,51.60
2019-05-19T10:58:40.991Z,51.50
2019-05-19T11:00:43.871Z,51.70
2019-05-19T11:02:46.891Z,51.70
2019-05-19T11:04:51.379Z,52.00
2019-05-19T11:06:56.205Z,52.10
2019-05-19T11:08:59.719Z,52.10
2019-05-19T11:11:03.378Z,52.30
2019-05-19T11:13:06.255Z,52.20
2019-05-19T11:15:09.297Z,52.30
2019-05-19T11:17:13.058Z,52.10
2019-05-19T11:19:15.956Z,52.00
2019-05-19T11:21:19.067Z,52.00
2019-05-19T11:23:22.692Z,52.00
2019-05-19T11:25:33.533Z,51.70
2019-05-19T11:27:28.503Z,51.40
2019-05-19T11:29:32.150Z,50.70
2019-05-19T11:31:35.187Z,51.30
2019-05-19T11:33:38.047Z,51.20
2019-05-19T11:35:40.942Z,51.00
2019-05-19T11:37:43.930Z,50.90
2019-05-19T11:39:46.804Z,50.80
2019-05-19T11:41:49.783Z,50.80
2019-05-19T11:43:52.787Z,50.70
2019-05-19T11:45:56.458Z,50.30
2019-05-19T11:47:59.339Z,50.20
2019-05-19T11:50:02.260Z,50.20
2019-05-19T11:52:05.943Z,50.00
2019-05-19T11:54:09.835Z,50.00
2019-05-19T11:56:14.251Z,49.80
2019-05-19T11:58:17.119Z,49.70
2019-05-19T12:00:20.042Z,49.60
2019-05-19T12:02:23.717Z,49.20
2019-05-19T12:04:26.643Z,49.10
2019-05-19T12:06:38.891Z,49.10
2019-05-19T12:08:32.447Z,49.00
2019-05-19T12:10:35.578Z,48.90
2019-05-19T12:12:39.255Z,48.90
2019-05-19T12:14:42.940Z,48.80
2019-05-19T12:16:45.918Z,48.70
2019-05-19T12:18:48.810Z,48.80
2019-05-19T12:20:51.821Z,48.60
2019-05-19T12:22:55.529Z,48.20
2019-05-19T12:24:58.947Z,48.10
2019-05-19T12:27:01.893Z,47.90
2019-05-19T12:29:06.319Z,47.50
2019-05-19T12:31:09.339Z,47.50
2019-05-19T12:33:12.247Z,47.40
2019-05-19T12:35:15.469Z,47.10
2019-05-19T12:37:18.692Z,46.90
2019-05-19T12:39:21.598Z,47.00
2019-05-19T12:41:24.463Z,47.10
2019-05-19T12:43:27.474Z,47.20
2019-05-19T12:45:30.447Z,47.00
2019-05-19T12:47:33.294Z,46.90
2019-05-19T12:49:36.214Z,46.70
2019-05-19T12:51:39.091Z,46.60
2019-05-19T12:53:41.976Z,46.40
2019-05-19T12:55:44.866Z,46.20
2019-05-19T12:57:48.588Z,46.00
2019-05-19T12:59:52.319Z,46.40
2019-05-19T13:01:55.235Z,45.70
2019-05-19T13:03:58.115Z,45.60
2019-05-19T13:06:00.987Z,45.50
2019-05-19T13:08:03.877Z,45.40
2019-05-19T13:10:06.781Z,45.00
2019-05-19T13:12:09.638Z,44.90
2019-05-19T13:14:12.723Z,44.70
2019-05-19T13:16:15.590Z,44.80
2019-05-19T13:18:18.467Z,44.60
2019-05-19T13:20:21.468Z,44.50
2019-05-19T13:22:24.622Z,44.30
2019-05-19T13:24:27.511Z,43.90
2019-05-19T13:26:30.433Z,43.60
2019-05-19T13:28:34.833Z,43.30
2019-05-19T13:30:37.711Z,43.80
2019-05-19T13:32:40.701Z,43.60
2019-05-19T13:34:43.679Z,42.70
2019-05-19T13:36:46.571Z,42.20
2019-05-19T13:38:49.551Z,41.70
2019-05-19T13:40:52.428Z,41.50
2019-05-19T13:42:55.415Z,41.20
2019-05-19T13:44:58.282Z,41.10
2019-05-19T13:47:01.159Z,41.00
2019-05-19T13:49:04.155Z,40.70
2019-05-19T13:51:07.023Z,40.40
2019-05-19T13:53:09.892Z,40.40
2019-05-19T13:55:13.059Z,40.50
2019-05-19T13:57:15.954Z,40.60
2019-05-19T13:59:19.434Z,40.30
2019-05-19T14:01:28.762Z,39.80
2019-05-19T14:03:26.196Z,39.30
2019-05-19T14:05:29.868Z,38.80
2019-05-19T14:07:32.741Z,38.80
2019-05-19T14:09:35.643Z,38.60
2019-05-19T14:11:40.142Z,38.50
2019-05-19T14:13:43.021Z,38.40
2019-05-19T14:15:46.015Z,38.20
2019-05-19T14:17:48.931Z,38.10
2019-05-19T14:19:51.811Z,37.60
2019-05-19T14:21:55.471Z,37.30
2019-05-19T14:24:00.128Z,36.90
2019-05-19T14:26:03.974Z,36.70
2019-05-19T14:28:07.724Z,36.50
2019-05-19T14:30:11.736Z,36.20
2019-05-19T14:32:14.686Z,36.10
2019-05-19T14:34:17.611Z,36.10
2019-05-19T14:36:20.546Z,35.80
2019-05-19T14:38:23.415Z,35.40
2019-05-19T14:40:26.616Z,35.20
2019-05-19T14:42:36.699Z,35.20
2019-05-19T14:44:39.641Z,35.20
2019-05-19T14:46:42.527Z,35.20
2019-05-19T14:48:45.412Z,34.90
2019-05-19T14:50:48.306Z,34.60
2019-05-19T14:52:52.055Z,34.40
2019-05-19T14:54:55.982Z,34.30
2019-05-19T14:56:58.978Z,34.30
2019-05-19T14:59:03.402Z,33.80
2019-05-19T15:01:06.414Z,33.80
2019-05-19T15:03:09.279Z,33.60
2019-05-19T15:05:12.995Z,34.40
2019-05-19T15:07:16.642Z,33.80
2019-05-19T15:09:20.367Z,33.80
2019-05-19T15:11:23.363Z,33.80
2019-05-19T15:13:27.027Z,33.70
2019-05-19T15:15:29.908Z,33.60
2019-05-19T15:17:32.798Z,33.80
2019-05-19T15:19:35.672Z,34.10
2019-05-19T15:21:38.770Z,34.30
2019-05-19T15:23:41.687Z,34.30
2019-05-19T15:25:45.283Z,34.20
2019-05-19T15:27:59.790Z,34.70
2019-05-19T15:29:51.943Z,34.10
2019-05-19T15:31:56.122Z,34.70
2019-05-19T15:33:59.127Z,34.00
2019-05-19T15:36:02.002Z,34.00
2019-05-19T15:38:04.887Z,33.90
2019-05-19T15:40:09.305Z,33.80
2019-05-19T15:42:12.191Z,33.70
2019-05-19T15:44:15.119Z,33.80
2019-05-19T15:46:18.369Z,33.70
2019-05-19T15:48:21.033Z,33.50
2019-05-19T15:50:24.016Z,33.50
2019-05-19T15:52:27.000Z,33.40
2019-05-19T15:54:30.018Z,33.10
2019-05-19T15:56:33.671Z,32.60
2019-05-19T15:58:36.671Z,33.10
2019-05-19T16:00:39.751Z,32.30
2019-05-19T16:02:42.627Z,32.50
2019-05-19T16:04:45.635Z,32.70
2019-05-19T16:06:48.603Z,32.60
2019-05-19T16:08:52.984Z,32.90
2019-05-19T16:10:56.786Z,32.90
2019-05-19T16:13:00.411Z,32.90
2019-05-19T16:15:03.399Z,32.90
2019-05-19T16:17:06.309Z,32.90
2019-05-19T16:19:10.064Z,33.10
2019-05-19T16:21:12.964Z,33.00
2019-05-19T16:23:15.943Z,32.90
2019-05-19T16:25:18.922Z,32.70
2019-05-19T16:27:23.951Z,32.90
2019-05-19T16:29:26.942Z,32.90
2019-05-19T16:31:29.919Z,33.20
2019-05-19T16:33:32.819Z,33.40
2019-05-19T16:35:36.522Z,33.60
2019-05-19T16:37:39.410Z,33.50
2019-05-19T16:39:43.147Z,33.20
2019-05-19T16:41:46.067Z,33.20
2019-05-19T16:43:48.938Z,33.20
2019-05-19T16:45:51.930Z,33.30
2019-05-19T16:47:54.919Z,34.20
2019-05-19T16:49:57.791Z,34.70
2019-05-19T16:52:00.795Z,34.80
2019-05-19T16:54:06.072Z,36.20
2019-05-19T16:56:09.067Z,35.50
2019-05-19T16:58:20.695Z,35.30
2019-05-19T17:00:14.803Z,35.10
2019-05-19T17:02:18.586Z,34.70
2019-05-19T17:04:22.226Z,34.60
2019-05-19T17:06:25.243Z,34.40
2019-05-19T17:08:28.119Z,34.50
2019-05-19T17:10:31.143Z,34.60
2019-05-19T17:12:34.817Z,36.00
2019-05-19T17:14:37.810Z,36.00
2019-05-19T17:16:41.442Z,38.30
2019-05-19T17:18:44.370Z,38.60
2019-05-19T17:20:47.241Z,39.90
2019-05-19T17:22:50.582Z,41.00
2019-05-19T17:24:53.571Z,41.70
2019-05-19T17:26:56.487Z,42.40
2019-05-19T17:29:01.061Z,43.10
2019-05-19T17:31:02.883Z,43.80
2019-05-19T17:35:15.728Z,44.40
2019-05-19T17:37:18.887Z,45.40
2019-05-19T17:39:22.127Z,45.50
2019-05-19T17:41:25.796Z,46.00
2019-05-19T17:43:28.788Z,46.00
2019-05-19T17:45:31.748Z,46.20
2019-05-19T17:47:36.135Z,46.80
2019-05-19T17:49:39.015Z,46.70
2019-05-19T17:51:41.942Z,46.80
2019-05-19T17:53:45.045Z,46.90
2019-05-19T17:55:48.696Z,47.10
2019-05-19T17:57:51.568Z,47.00
2019-05-19T17:59:54.434Z,47.10
2019-05-19T18:01:57.337Z,47.00
2019-05-19T18:04:00.234Z,46.90
2019-05-19T18:06:03.156Z,46.90
2019-05-19T18:08:06.927Z,47.80
2019-05-19T18:10:09.924Z,47.70
2019-05-19T18:12:13.696Z,47.50
2019-05-19T18:14:16.615Z,47.40
2019-05-19T18:16:19.582Z,47.30
2019-05-19T18:18:22.542Z,47.10
2019-05-19T18:20:25.640Z,46.80
2019-05-19T18:22:28.557Z,46.70
2019-05-19T18:24:32.268Z,46.70
2019-05-19T18:26:35.239Z,46.70
2019-05-19T18:28:38.910Z,46.70
2019-05-19T18:30:41.810Z,46.60
2019-05-19T18:32:45.499Z,46.50
2019-05-19T18:34:49.881Z,46.40
2019-05-19T18:36:52.921Z,46.40
2019-05-19T18:38:55.975Z,46.30
2019-05-19T18:40:59.122Z,46.20
2019-05-19T18:43:02.278Z,46.20
2019-05-19T18:45:06.030Z,47.10
2019-05-19T18:47:09.083Z,46.40
2019-05-19T18:49:12.288Z,46.70
2019-05-19T18:51:15.368Z,46.90
2019-05-19T18:53:18.354Z,47.10
2019-05-19T18:55:21.263Z,47.30
2019-05-19T18:57:24.150Z,47.50
2019-05-19T18:59:27.899Z,47.60
2019-05-19T19:01:30.930Z,47.90
2019-05-19T19:03:33.920Z,48.10
2019-05-19T19:05:37.245Z,48.20
2019-05-19T19:07:46.891Z,48.30
2019-05-19T19:09:50.447Z,48.30
2019-05-19T19:11:53.754Z,48.50
2019-05-19T19:13:56.753Z,48.90
2019-05-19T19:16:01.134Z,49.40
2019-05-19T19:18:04.114Z,49.30
2019-05-19T19:20:07.195Z,49.40
2019-05-19T19:22:10.071Z,49.50
2019-05-19T19:24:12.944Z,49.60
2019-05-19T19:26:15.830Z,49.60
2019-05-19T19:28:18.723Z,49.60
2019-05-19T19:30:21.604Z,49.60
2019-05-19T19:32:24.696Z,49.60
2019-05-19T19:34:27.862Z,49.70
2019-05-19T19:36:30.759Z,49.90
2019-05-19T19:38:34.568Z,50.10
2019-05-19T19:40:37.553Z,50.40
2019-05-19T19:42:40.492Z,50.50
2019-05-19T19:44:43.822Z,50.70
2019-05-19T19:46:46.943Z,50.60
2019-05-19T19:48:51.052Z,50.60
2019-05-19T19:50:54.771Z,50.70
2019-05-19T19:52:57.711Z,51.30
2019-05-19T19:55:00.595Z,51.00
2019-05-19T19:57:04.518Z,51.20
2019-05-19T19:59:08.239Z,51.50
2019-05-19T20:01:11.171Z,51.40
2019-05-19T20:03:15.648Z,51.90
2019-05-19T20:05:18.911Z,51.90
2019-05-19T20:07:23.122Z,52.00
2019-05-19T20:09:26.107Z,51.90
2019-05-19T20:11:30.023Z,52.30
2019-05-19T20:13:33.030Z,52.30
2019-05-19T20:15:36.615Z,52.50
2019-05-19T20:17:39.580Z,52.70
2019-05-19T20:19:44.193Z,53.00
2019-05-19T20:21:47.167Z,53.00
2019-05-19T20:23:50.824Z,53.20
2019-05-19T20:25:53.965Z,53.20
2019-05-19T20:27:56.915Z,53.30
2019-05-19T20:29:59.843Z,53.50
2019-05-19T20:32:02.928Z,53.60
2019-05-19T20:34:05.867Z,53.60
2019-05-19T20:36:10.276Z,53.90
2019-05-19T20:38:13.568Z,53.90
2019-05-19T20:40:17.977Z,54.30
2019-05-19T20:42:20.898Z,54.30
2019-05-19T20:44:24.588Z,54.40
2019-05-19T20:46:28.546Z,54.10
2019-05-19T20:48:32.834Z,54.40
2019-05-19T20:50:34.430Z,54.60
2019-05-19T20:52:39.064Z,54.80
2019-05-19T20:54:43.815Z,54.90
2019-05-19T20:56:46.766Z,54.90
2019-05-19T20:58:50.087Z,55.60
2019-05-19T21:00:53.746Z,55.20
2019-05-19T21:02:56.618Z,55.10
2019-05-19T21:04:59.520Z,55.20
2019-05-19T21:07:02.442Z,55.30
2019-05-19T21:09:06.080Z,55.40
2019-05-19T21:11:10.302Z,55.40
2019-05-19T21:13:13.222Z,55.30
2019-05-19T21:15:17.672Z,55.60
2019-05-19T21:17:20.635Z,55.60
2019-05-19T21:19:23.487Z,55.70
2019-05-19T21:21:26.706Z,55.70
2019-05-19T21:23:30.355Z,55.80
2019-05-19T21:25:34.800Z,55.90
2019-05-19T21:27:38.194Z,55.80
2019-05-19T21:29:42.571Z,55.90
2019-05-19T21:31:45.695Z,55.80
2019-05-19T21:33:49.381Z,55.70
2019-05-19T21:35:53.775Z,55.80
2019-05-19T21:37:56.651Z,55.70
2019-05-19T21:39:59.689Z,55.80
2019-05-19T21:42:03.319Z,56.20
2019-05-19T21:44:06.675Z,55.90
2019-05-19T21:46:10.355Z,55.90
2019-05-19T21:48:13.222Z,55.90
2019-05-19T21:50:16.420Z,55.90
2019-05-19T21:52:19.390Z,55.90
2019-05-19T21:54:23.805Z,55.80
2019-05-19T21:56:26.823Z,55.80
2019-05-19T21:58:30.591Z,55.90
2019-05-19T22:00:33.475Z,55.80
2019-05-19T22:02:37.874Z,56.00
2019-05-19T22:04:42.310Z,56.10
2019-05-19T22:06:51.831Z,56.10
2019-05-19T22:08:54.858Z,56.00
2019-05-19T22:10:59.255Z,56.10
2019-05-19T22:13:03.910Z,56.10
2019-05-19T22:15:07.364Z,56.00
2019-05-19T22:17:10.235Z,56.10
2019-05-19T22:19:15.821Z,56.10
2019-05-19T22:21:16.773Z,56.20
2019-05-19T22:23:19.695Z,56.10
2019-05-19T22:25:22.701Z,56.10
2019-05-19T22:27:26.344Z,56.60
2019-05-19T22:29:29.314Z,56.10
2019-05-19T22:31:36.964Z,56.10
2019-05-19T22:33:35.083Z,56.10
2019-05-19T22:35:37.987Z,56.20
2019-05-19T22:37:40.864Z,56.80
2019-05-19T22:39:43.772Z,56.20
2019-05-19T22:41:48.195Z,56.20
2019-05-19T22:43:51.075Z,56.10
2019-05-19T22:45:54.090Z,56.10
2019-05-19T22:47:58.077Z,56.30
2019-05-19T22:50:02.327Z,56.80
2019-05-19T22:52:05.950Z,56.20
2019-05-19T22:54:09.079Z,56.10
2019-05-19T22:56:13.613Z,56.20
2019-05-19T22:58:17.543Z,56.20
2019-05-19T23:00:20.436Z,56.20
2019-05-19T23:02:23.306Z,56.30
2019-05-19T23:04:26.198Z,56.20
2019-05-19T23:06:29.114Z,56.20
2019-05-19T23:08:32.809Z,56.40
2019-05-19T23:10:35.782Z,56.30
2019-05-19T23:12:38.688Z,56.30
2019-05-19T23:14:41.692Z,56.40
2019-05-19T23:16:45.750Z,56.40
2019-05-19T23:18:48.791Z,56.30
2019-05-19T23:20:52.235Z,56.40
2019-05-19T23:22:55.214Z,56.40
2019-05-19T23:24:58.087Z,56.50
2019-05-19T23:27:01.258Z,56.40
2019-05-19T23:29:04.166Z,56.40
2019-05-19T23:31:07.051Z,56.50
2019-05-19T23:33:10.643Z,56.60
2019-05-19T23:35:13.534Z,56.50
2019-05-19T23:37:16.516Z,56.70
2019-05-19T23:39:21.240Z,56.80
2019-05-19T23:41:24.214Z,56.80
2019-05-19T23:43:27.092Z,56.80
2019-05-19T23:45:30.084Z,56.70
2019-05-19T23:47:33.057Z,56.80
2019-05-19T23:49:36.328Z,56.80
2019-05-19T23:51:39.250Z,56.90
2019-05-19T23:53:43.624Z,57.60
2019-05-19T23:55:46.595Z,56.90
2019-05-19T23:57:49.912Z,56.90
2019-05-19T23:59:53.624Z,56.80
